To NAV CANADA Home Page Login to a new session Search on AWWS site Feedback and Comments Disclaimer Vers la page française équivalente Tips FAQ What's new on the site To the Forecasts and Observations / NOTAM section To "File a Flight Plan" website Publications and other links Update of the User's profile FIC Telephone Numbers My Weather Data Folder Route Weather Data Regional Weather Data Local Weather Data To the Forecasts and Observations / NOTAM section
Request Generated 01/21/2017 at 02:04:44 UTC . Weather information available at that time is displayed.

METAR/TAF

OTTAWA/GATINEAU/QC    

METAR CYND 210200Z 06004KT 15SM OVC019 01/M01 A2983 RMK SC8 LAST STFD
OBS/NEXT 211200 UTC SLP106=
METAR CYND 210100Z 04005KT 15SM OVC018 01/M02 A2983 RMK SC8 SLP107=
METAR CYND 210000Z 09004KT 15SM OVC018 01/M01 A2985 RMK SC8 SLP113=

*** REMARK        : Forecast period has ended; this was the last TAF issued
*** REMARQUE : La période de prévision est échue; ceci était le dernier TAF qui a été émis
TAF CYND 202338Z 2100/2102 VRB03KT P6SM OVC015
RMK NXT FCST WILL BE ISSUED AT 211345Z=
Your time UTC time
Weather data provided by Environment Canada and NAV CANADA